Iranshahr, Iran
Current Conditions -  °F | °C
As of 2:00 PM on Saturday 22 Nov 2014 (Local Time) from OIZI Reporting Station
Clear Clear  
Wind Chill: 82°   Ceiling: Unl
Heat Index: 82°   Visibility: 6mi
Dew Point: 37°   Wind: 5mph
Humidity: 20%   Direction: 250°WSW
Pressure: 29.97"   Gusts: NA
Location:  27.21°N, 60.69°E
Report Text: OIZI 221100Z 25004KT CAVOK 28/03 Q1015
Loading
Personal Weather Stations






























Interactive Weather Map New forecast layout! Learn more

10-Day Weather Forecast

Advertisements
Track Severe Weather on mobile